createdAt,value
2022-12-19T00:00:03.123Z,-3.00
2022-12-19T00:01:03.138Z,-3.00
2022-12-19T00:02:03.263Z,-3.00
2022-12-19T00:03:03.182Z,-3.00
2022-12-19T00:04:07.931Z,-3.00
2022-12-19T00:05:03.055Z,-3.00
2022-12-19T00:06:03.049Z,-2.90
2022-12-19T00:07:02.875Z,-2.90
2022-12-19T00:08:04.707Z,-2.90
2022-12-19T00:09:02.900Z,-2.90
2022-12-19T00:10:02.849Z,-2.90
2022-12-19T00:11:02.668Z,-2.90
2022-12-19T00:12:02.666Z,-2.90
2022-12-19T00:13:02.686Z,-2.90
2022-12-19T00:14:02.730Z,-2.90
2022-12-19T00:15:02.595Z,-2.90
2022-12-19T00:16:02.723Z,-2.90
2022-12-19T00:17:03.661Z,-2.90
2022-12-19T00:18:02.653Z,-2.90
2022-12-19T00:19:02.684Z,-2.90
2022-12-19T00:20:02.696Z,-2.90
2022-12-19T00:21:02.722Z,-2.90
2022-12-19T00:22:04.360Z,-2.90
2022-12-19T00:23:02.604Z,-2.80
2022-12-19T00:24:03.558Z,-2.90
2022-12-19T00:25:03.387Z,-2.80
2022-12-19T00:26:03.412Z,-2.80
2022-12-19T00:27:03.328Z,-2.80
2022-12-19T00:28:03.280Z,-2.80
2022-12-19T00:29:03.133Z,-2.80
2022-12-19T00:30:03.037Z,-2.80
2022-12-19T00:31:03.071Z,-2.80
2022-12-19T00:32:03.038Z,-2.80
2022-12-19T00:33:03.023Z,-2.80
2022-12-19T00:34:02.985Z,-2.80
2022-12-19T00:35:02.856Z,-2.80
2022-12-19T00:36:03.006Z,-2.80
2022-12-19T00:37:02.956Z,-2.80
2022-12-19T00:38:02.857Z,-2.80
2022-12-19T00:39:03.445Z,-2.80
2022-12-19T00:40:02.825Z,-2.80
2022-12-19T00:41:02.728Z,-2.80
2022-12-19T00:42:02.682Z,-2.80
2022-12-19T00:43:02.591Z,-2.80
2022-12-19T00:44:03.530Z,-2.80
2022-12-19T00:45:03.570Z,-2.80
2022-12-19T00:46:02.715Z,-2.80
2022-12-19T00:47:02.585Z,-2.80
2022-12-19T00:48:02.742Z,-2.80
2022-12-19T00:49:03.504Z,-2.80
2022-12-19T00:50:03.517Z,-2.80
2022-12-19T00:51:03.451Z,-2.80
2022-12-19T00:52:03.584Z,-2.80
2022-12-19T00:53:03.419Z,-2.80
2022-12-19T00:54:03.941Z,-2.80
2022-12-19T00:55:03.671Z,-2.80
2022-12-19T00:56:03.333Z,-2.80
2022-12-19T00:57:03.258Z,-2.80
2022-12-19T00:58:03.372Z,-2.80
2022-12-19T00:59:03.278Z,-2.80
2022-12-19T01:00:03.271Z,-2.80
2022-12-19T01:01:03.328Z,-2.80
2022-12-19T01:02:03.163Z,-2.80
2022-12-19T01:03:03.163Z,-2.80
2022-12-19T01:04:29.667Z,-2.80
2022-12-19T01:05:02.985Z,-2.80
2022-12-19T01:06:02.809Z,-2.80
2022-12-19T01:07:03.207Z,-2.80
2022-12-19T01:08:02.850Z,-2.80
2022-12-19T01:09:02.877Z,-2.80
2022-12-19T01:10:03.233Z,-2.80
2022-12-19T01:11:03.076Z,-2.80
2022-12-19T01:12:03.013Z,-2.80
2022-12-19T01:13:02.891Z,-2.80
2022-12-19T01:14:02.871Z,-2.80
2022-12-19T01:15:04.148Z,-2.80
2022-12-19T01:16:02.700Z,-2.80
2022-12-19T01:17:02.756Z,-2.70
2022-12-19T01:18:02.725Z,-2.70
2022-12-19T01:19:02.664Z,-2.70
2022-12-19T01:20:03.629Z,-2.70
2022-12-19T01:21:03.501Z,-2.70
2022-12-19T01:22:03.455Z,-2.70
2022-12-19T01:23:03.382Z,-2.70
2022-12-19T01:24:03.494Z,-2.70
2022-12-19T01:25:03.466Z,-2.70
2022-12-19T01:26:03.296Z,-2.70
2022-12-19T01:27:03.206Z,-2.70
2022-12-19T01:28:03.203Z,-2.70
2022-12-19T01:29:03.121Z,-2.70
2022-12-19T01:30:02.995Z,-2.70
2022-12-19T01:31:03.283Z,-2.70
2022-12-19T01:32:03.332Z,-2.70
2022-12-19T01:33:03.114Z,-2.60
2022-12-19T01:34:03.190Z,-2.60
2022-12-19T01:35:03.136Z,-2.60
2022-12-19T01:36:03.063Z,-2.60
2022-12-19T01:37:03.005Z,-2.60
2022-12-19T01:38:06.590Z,-2.60
2022-12-19T01:39:02.844Z,-2.60
2022-12-19T01:40:02.788Z,-2.60
2022-12-19T01:41:02.705Z,-2.60
2022-12-19T01:42:02.605Z,-2.60
2022-12-19T01:43:03.544Z,-2.60
2022-12-19T01:44:03.518Z,-2.60
2022-12-19T01:45:03.547Z,-2.60
2022-12-19T01:46:03.574Z,-2.60
2022-12-19T01:47:03.456Z,-2.60
2022-12-19T01:48:03.410Z,-2.60
2022-12-19T01:49:03.389Z,-2.60
2022-12-19T01:50:03.449Z,-2.50
2022-12-19T01:51:03.335Z,-2.50
2022-12-19T01:52:03.292Z,-2.50
2022-12-19T01:53:03.324Z,-2.50
2022-12-19T01:54:03.205Z,-2.50
2022-12-19T01:55:03.136Z,-2.50
2022-12-19T01:56:06.989Z,-2.50
2022-12-19T01:57:03.143Z,-2.50
2022-12-19T01:58:03.254Z,-2.50
2022-12-19T01:59:05.684Z,-2.50
2022-12-19T02:00:03.038Z,-2.50
2022-12-19T02:01:02.752Z,-2.50
2022-12-19T02:02:02.924Z,-2.50
2022-12-19T02:03:02.635Z,-2.50
2022-12-19T02:04:02.668Z,-2.50
2022-12-19T02:05:02.611Z,-2.50
2022-12-19T02:06:02.617Z,-2.50
2022-12-19T02:07:10.893Z,-2.50
2022-12-19T02:08:03.465Z,-2.50
2022-12-19T02:09:03.477Z,-2.50
2022-12-19T02:10:03.530Z,-2.50
2022-12-19T02:11:03.359Z,-2.50
2022-12-19T02:12:03.342Z,-2.50
2022-12-19T02:13:03.310Z,-2.40
2022-12-19T02:14:03.254Z,-2.50
2022-12-19T02:15:03.500Z,-2.40
2022-12-19T02:16:02.603Z,-2.40
2022-12-19T02:17:02.635Z,-2.40
2022-12-19T02:18:02.555Z,-2.40
2022-12-19T02:19:02.574Z,-2.40
2022-12-19T02:20:02.638Z,-2.40
2022-12-19T02:21:03.055Z,-2.40
2022-12-19T02:22:03.209Z,-2.30
2022-12-19T02:23:02.899Z,-2.40
2022-12-19T02:24:02.878Z,-2.30
2022-12-19T02:25:03.037Z,-2.30
2022-12-19T02:26:02.945Z,-2.30
2022-12-19T02:27:02.896Z,-2.30
2022-12-19T02:28:02.817Z,-2.30
2022-12-19T02:29:02.791Z,-2.30
2022-12-19T02:30:02.747Z,-2.30
2022-12-19T02:31:03.959Z,-2.30
2022-12-19T02:32:02.653Z,-2.30
2022-12-19T02:33:02.844Z,-2.30
2022-12-19T02:34:02.918Z,-2.20
2022-12-19T02:35:02.831Z,-2.20
2022-12-19T02:36:02.736Z,-2.20
2022-12-19T02:37:02.708Z,-2.20
2022-12-19T02:38:04.961Z,-2.20
2022-12-19T02:39:03.533Z,-2.20
2022-12-19T02:40:03.386Z,-2.20
2022-12-19T02:41:03.384Z,-2.20
2022-12-19T02:42:03.068Z,-2.20
2022-12-19T02:43:03.070Z,-2.20
2022-12-19T02:44:02.898Z,-2.20
2022-12-19T02:45:02.903Z,-2.20
2022-12-19T02:46:02.959Z,-2.20
2022-12-19T02:47:02.876Z,-2.10
2022-12-19T02:48:07.456Z,-2.10
2022-12-19T02:49:02.800Z,-2.10
2022-12-19T02:50:02.877Z,-2.10
2022-12-19T02:51:02.817Z,-2.10
2022-12-19T02:52:02.735Z,-2.10
2022-12-19T02:53:02.717Z,-2.10
2022-12-19T02:54:02.661Z,-2.10
2022-12-19T02:55:02.570Z,-2.10
2022-12-19T02:56:03.599Z,-2.10
2022-12-19T02:57:03.457Z,-2.00
2022-12-19T02:58:03.404Z,-2.00
2022-12-19T02:59:03.269Z,-2.00
2022-12-19T03:00:03.385Z,-2.00
2022-12-19T03:01:03.311Z,-2.00
2022-12-19T03:02:03.424Z,-2.00
2022-12-19T03:03:03.290Z,-2.00
2022-12-19T03:04:03.245Z,-2.00
2022-12-19T03:05:03.131Z,-2.00
2022-12-19T03:06:03.100Z,-2.00
2022-12-19T03:07:03.123Z,-2.00
2022-12-19T03:08:03.082Z,-1.90
2022-12-19T03:09:03.025Z,-1.90
2022-12-19T03:10:02.980Z,-1.90
2022-12-19T03:11:02.993Z,-1.90
2022-12-19T03:12:02.929Z,-1.90
2022-12-19T03:13:02.827Z,-1.90
2022-12-19T03:14:02.828Z,-1.90
2022-12-19T03:15:02.735Z,-1.90
2022-12-19T03:16:02.813Z,-1.90
2022-12-19T03:17:02.890Z,-1.90
2022-12-19T03:18:02.766Z,-1.80
2022-12-19T03:19:02.765Z,-1.90
2022-12-19T03:20:02.752Z,-1.90
2022-12-19T03:21:02.751Z,-1.80
2022-12-19T03:22:02.700Z,-1.80
2022-12-19T03:23:02.739Z,-1.80
2022-12-19T03:24:02.656Z,-1.80
2022-12-19T03:25:03.577Z,-1.80
2022-12-19T03:26:03.484Z,-1.80
2022-12-19T03:27:03.425Z,-1.80
2022-12-19T03:28:03.337Z,-1.80
2022-12-19T03:29:03.233Z,-1.80
2022-12-19T03:30:03.148Z,-1.70
2022-12-19T03:31:03.113Z,-1.70
2022-12-19T03:32:02.994Z,-1.70
2022-12-19T03:33:02.926Z,-1.70
2022-12-19T03:34:02.855Z,-1.70
2022-12-19T03:35:02.722Z,-1.70
2022-12-19T03:36:02.949Z,-1.70
2022-12-19T03:37:02.824Z,-1.70
2022-12-19T03:38:02.826Z,-1.60
2022-12-19T03:39:02.792Z,-1.60
2022-12-19T03:40:02.690Z,-1.60
2022-12-19T03:41:02.603Z,-1.60
2022-12-19T03:42:02.621Z,-1.60
2022-12-19T03:43:02.688Z,-1.60
2022-12-19T03:44:03.556Z,-1.60
2022-12-19T03:45:03.584Z,-1.50
2022-12-19T03:46:03.632Z,-1.50
2022-12-19T03:47:02.644Z,-1.50
2022-12-19T03:48:02.635Z,-1.50
2022-12-19T03:49:03.588Z,-1.50
2022-12-19T03:50:03.453Z,-1.50
2022-12-19T03:51:03.380Z,-1.50
2022-12-19T03:52:03.321Z,-1.50
2022-12-19T03:53:03.282Z,-1.50
2022-12-19T03:54:03.313Z,-1.50
2022-12-19T03:55:03.265Z,-1.50
2022-12-19T03:56:03.194Z,-1.50
2022-12-19T03:57:03.070Z,-1.40
2022-12-19T03:58:03.051Z,-1.40
2022-12-19T03:59:03.091Z,-1.40
2022-12-19T04:00:03.124Z,-1.40
2022-12-19T04:01:03.058Z,-1.40
2022-12-19T04:02:03.132Z,-1.40
2022-12-19T04:03:03.078Z,-1.40
2022-12-19T04:04:02.998Z,-1.40
2022-12-19T04:05:02.914Z,-1.40
2022-12-19T04:06:02.883Z,-1.40
2022-12-19T04:07:02.938Z,-1.40
2022-12-19T04:08:02.839Z,-1.40
2022-12-19T04:09:02.854Z,-1.40
2022-12-19T04:10:02.701Z,-1.40
2022-12-19T04:11:02.815Z,-1.40
2022-12-19T04:12:02.757Z,-1.40
2022-12-19T04:13:02.679Z,-1.40
2022-12-19T04:14:02.601Z,-1.40
2022-12-19T04:15:03.551Z,-1.40
2022-12-19T04:16:02.767Z,-1.40
2022-12-19T04:17:02.902Z,-1.40
2022-12-19T04:18:02.671Z,-1.40
2022-12-19T04:19:02.624Z,-1.40
2022-12-19T04:20:02.972Z,-1.40
2022-12-19T04:21:02.865Z,-1.40
2022-12-19T04:22:02.854Z,-1.40
2022-12-19T04:23:02.665Z,-1.40
2022-12-19T04:24:02.638Z,-1.40
2022-12-19T04:25:03.587Z,-1.40
2022-12-19T04:26:02.901Z,-1.40
2022-12-19T04:27:02.842Z,-1.40
2022-12-19T04:28:02.838Z,-1.40
2022-12-19T04:29:03.283Z,-1.40
2022-12-19T04:30:03.240Z,-1.40
2022-12-19T04:31:03.379Z,-1.40
2022-12-19T04:32:03.111Z,-1.40
2022-12-19T04:33:03.028Z,-1.40
2022-12-19T04:34:03.071Z,-1.40
2022-12-19T04:35:03.009Z,-1.40
2022-12-19T04:36:02.977Z,-1.40
2022-12-19T04:37:02.876Z,-1.40
2022-12-19T04:38:02.824Z,-1.40
2022-12-19T04:39:02.840Z,-1.40
2022-12-19T04:40:02.710Z,-1.40
2022-12-19T04:41:02.616Z,-1.40
2022-12-19T04:42:02.608Z,-1.40
2022-12-19T04:43:03.582Z,-1.40
2022-12-19T04:44:03.541Z,-1.40
2022-12-19T04:45:03.485Z,-1.40
2022-12-19T04:46:03.432Z,-1.30
2022-12-19T04:47:03.381Z,-1.30
2022-12-19T04:48:03.331Z,-1.30
2022-12-19T04:49:03.316Z,-1.30
2022-12-19T04:50:03.167Z,-1.30
2022-12-19T04:51:03.197Z,-1.30
2022-12-19T04:52:03.250Z,-1.30
2022-12-19T04:53:03.279Z,-1.30
2022-12-19T04:54:03.344Z,-1.30
2022-12-19T04:55:03.274Z,-1.30
2022-12-19T04:56:03.182Z,-1.30
2022-12-19T04:57:03.080Z,-1.30
2022-12-19T04:58:03.059Z,-1.30
2022-12-19T04:59:03.028Z,-1.30
2022-12-19T05:00:03.035Z,-1.30
2022-12-19T05:01:02.977Z,-1.30
2022-12-19T05:02:03.033Z,-1.30
2022-12-19T05:03:03.076Z,-1.30
2022-12-19T05:04:04.558Z,-1.30
2022-12-19T05:05:03.001Z,-1.30
2022-12-19T05:06:02.907Z,-1.30
2022-12-19T05:07:02.941Z,-1.30
2022-12-19T05:08:02.826Z,-1.30
2022-12-19T05:09:02.886Z,-1.30
2022-12-19T05:10:03.229Z,-1.30
2022-12-19T05:11:03.198Z,-1.30
2022-12-19T05:12:03.212Z,-1.30
2022-12-19T05:13:03.149Z,-1.30
2022-12-19T05:14:03.087Z,-1.30
2022-12-19T05:15:03.195Z,-1.30
2022-12-19T05:16:03.205Z,-1.30
2022-12-19T05:17:03.065Z,-1.30
2022-12-19T05:18:03.070Z,-1.30
2022-12-19T05:19:02.993Z,-1.30
2022-12-19T05:20:02.899Z,-1.30
2022-12-19T05:21:02.838Z,-1.30
2022-12-19T05:22:02.822Z,-1.30
2022-12-19T05:23:05.073Z,-1.30
2022-12-19T05:24:02.686Z,-1.30
2022-12-19T05:25:03.778Z,-1.30
2022-12-19T05:26:02.829Z,-1.30
2022-12-19T05:27:02.707Z,-1.30
2022-12-19T05:28:02.587Z,-1.30
2022-12-19T05:29:02.635Z,-1.30
2022-12-19T05:30:03.557Z,-1.30
2022-12-19T05:31:03.530Z,-1.30
2022-12-19T05:32:03.456Z,-1.30
2022-12-19T05:33:03.397Z,-1.30
2022-12-19T05:34:03.473Z,-1.30
2022-12-19T05:35:03.302Z,-1.30
2022-12-19T05:36:03.306Z,-1.30
2022-12-19T05:37:03.273Z,-1.30
2022-12-19T05:38:03.352Z,-1.30
2022-12-19T05:39:03.303Z,-1.30
2022-12-19T05:40:03.308Z,-1.30
2022-12-19T05:41:03.317Z,-1.30
2022-12-19T05:42:03.219Z,-1.30
2022-12-19T05:43:02.906Z,-1.30
2022-12-19T05:44:02.836Z,-1.30
2022-12-19T05:45:02.815Z,-1.30
2022-12-19T05:46:02.786Z,-1.30
2022-12-19T05:47:03.201Z,-1.30
2022-12-19T05:48:03.260Z,-1.30
2022-12-19T05:49:03.304Z,-1.30
2022-12-19T05:50:03.294Z,-1.30
2022-12-19T05:51:03.213Z,-1.40
2022-12-19T05:52:03.264Z,-1.40
2022-12-19T05:53:03.311Z,-1.40
2022-12-19T05:54:03.239Z,-1.40
2022-12-19T05:55:03.208Z,-1.40
2022-12-19T05:56:03.227Z,-1.40
2022-12-19T05:57:03.239Z,-1.40
2022-12-19T05:58:03.227Z,-1.40
2022-12-19T05:59:03.282Z,-1.40
2022-12-19T06:00:03.128Z,-1.40
2022-12-19T06:01:03.057Z,-1.40
2022-12-19T06:02:02.990Z,-1.40
2022-12-19T06:03:02.945Z,-1.50
2022-12-19T06:04:02.728Z,-1.50
2022-12-19T06:05:02.789Z,-1.50
2022-12-19T06:06:02.738Z,-1.50
2022-12-19T06:07:02.717Z,-1.50
2022-12-19T06:08:02.689Z,-1.50
2022-12-19T06:09:03.569Z,-1.50
2022-12-19T06:10:03.514Z,-1.50
2022-12-19T06:11:03.438Z,-1.50
2022-12-19T06:12:03.467Z,-1.50
2022-12-19T06:13:03.384Z,-1.50
2022-12-19T06:14:03.324Z,-1.50
2022-12-19T06:15:03.363Z,-1.50
2022-12-19T06:16:03.413Z,-1.50
2022-12-19T06:17:03.422Z,-1.50
2022-12-19T06:18:03.323Z,-1.50
2022-12-19T06:19:03.288Z,-1.50
2022-12-19T06:20:03.160Z,-1.50
2022-12-19T06:21:03.172Z,-1.50
2022-12-19T06:22:03.067Z,-1.50
2022-12-19T06:23:02.963Z,-1.50
2022-12-19T06:24:03.359Z,-1.50
2022-12-19T06:25:03.154Z,-1.50
2022-12-19T06:26:03.169Z,-1.50
2022-12-19T06:27:03.095Z,-1.50
2022-12-19T06:28:03.100Z,-1.50
2022-12-19T06:29:02.963Z,-1.50
2022-12-19T06:30:03.078Z,-1.50
2022-12-19T06:31:03.079Z,-1.50
2022-12-19T06:32:03.075Z,-1.50
2022-12-19T06:33:02.983Z,-1.50
2022-12-19T06:34:02.963Z,-1.50
2022-12-19T06:35:04.321Z,-1.50
2022-12-19T06:36:02.878Z,-1.50
2022-12-19T06:37:06.615Z,-1.50
2022-12-19T06:38:02.629Z,-1.50
2022-12-19T06:39:02.706Z,-1.50
2022-12-19T06:40:02.636Z,-1.50
2022-12-19T06:41:02.820Z,-1.50
2022-12-19T06:42:02.779Z,-1.50
2022-12-19T06:43:02.686Z,-1.50
2022-12-19T06:44:02.626Z,-1.50
2022-12-19T06:45:03.551Z,-1.50
2022-12-19T06:46:03.699Z,-1.50
2022-12-19T06:47:03.582Z,-1.50
2022-12-19T06:48:03.600Z,-1.50
2022-12-19T06:49:03.427Z,-1.50
2022-12-19T06:50:03.440Z,-1.50
2022-12-19T06:51:03.373Z,-1.50
2022-12-19T06:52:06.349Z,-1.50
2022-12-19T06:53:03.219Z,-1.50
2022-12-19T06:54:03.199Z,-1.50
2022-12-19T06:55:03.065Z,-1.50
2022-12-19T06:56:03.116Z,-1.50
2022-12-19T06:57:03.077Z,-1.50
2022-12-19T06:58:03.022Z,-1.50
2022-12-19T06:59:02.999Z,-1.50
2022-12-19T07:00:02.925Z,-1.50
2022-12-19T07:01:02.794Z,-1.50
2022-12-19T07:02:02.863Z,-1.60
2022-12-19T07:03:02.899Z,-1.60
2022-12-19T07:04:02.754Z,-1.60
2022-12-19T07:05:02.789Z,-1.50
2022-12-19T07:06:02.765Z,-1.60
2022-12-19T07:07:02.747Z,-1.60
2022-12-19T07:08:02.740Z,-1.60
2022-12-19T07:09:02.593Z,-1.60
2022-12-19T07:10:03.512Z,-1.60
2022-12-19T07:11:03.617Z,-1.60
2022-12-19T07:12:03.594Z,-1.60
2022-12-19T07:13:03.439Z,-1.60
2022-12-19T07:14:03.395Z,-1.60
2022-12-19T07:15:03.356Z,-1.60
2022-12-19T07:16:03.290Z,-1.60
2022-12-19T07:17:03.239Z,-1.60
2022-12-19T07:18:03.114Z,-1.60
2022-12-19T07:19:03.097Z,-1.60
2022-12-19T07:20:03.093Z,-1.60
2022-12-19T07:21:03.086Z,-1.60
2022-12-19T07:22:03.023Z,-1.60
2022-12-19T07:23:03.051Z,-1.60
2022-12-19T07:24:02.963Z,-1.60
2022-12-19T07:25:02.960Z,-1.60
2022-12-19T07:26:02.923Z,-1.60
2022-12-19T07:27:03.046Z,-1.60
2022-12-19T07:28:02.949Z,-1.60
2022-12-19T07:29:02.813Z,-1.60
2022-12-19T07:30:02.750Z,-1.60
2022-12-19T07:31:02.801Z,-1.60
2022-12-19T07:32:02.756Z,-1.60
2022-12-19T07:33:02.619Z,-1.60
2022-12-19T07:34:02.610Z,-1.60
2022-12-19T07:35:02.651Z,-1.60
2022-12-19T07:36:02.769Z,-1.60
2022-12-19T07:37:03.516Z,-1.60
2022-12-19T07:38:03.578Z,-1.60
2022-12-19T07:39:03.455Z,-1.50
2022-12-19T07:40:03.488Z,-1.50
2022-12-19T07:41:03.488Z,-1.50
2022-12-19T07:42:03.400Z,-1.50
2022-12-19T07:43:03.265Z,-1.50
2022-12-19T07:44:03.310Z,-1.50
2022-12-19T07:45:03.294Z,-1.50
2022-12-19T07:46:03.319Z,-1.40
2022-12-19T07:47:03.245Z,-1.50
2022-12-19T07:48:03.224Z,-1.40
2022-12-19T07:49:03.206Z,-1.40
2022-12-19T07:50:03.078Z,-1.40
2022-12-19T07:51:02.980Z,-1.40
2022-12-19T07:52:03.438Z,-1.40
2022-12-19T07:53:03.472Z,-1.40
2022-12-19T07:54:03.380Z,-1.30
2022-12-19T07:55:03.308Z,-1.30
2022-12-19T07:56:03.236Z,-1.30
2022-12-19T07:57:03.274Z,-1.30
2022-12-19T07:58:03.088Z,-1.30
2022-12-19T07:59:02.928Z,-1.30
2022-12-19T08:00:03.078Z,-1.20
2022-12-19T08:01:03.079Z,-1.20
2022-12-19T08:02:03.041Z,-1.20
2022-12-19T08:03:02.910Z,-1.20
2022-12-19T08:04:02.891Z,-1.20
2022-12-19T08:05:02.783Z,-1.20
2022-12-19T08:06:02.712Z,-1.20
2022-12-19T08:07:02.765Z,-1.10
2022-12-19T08:08:02.713Z,-1.10
2022-12-19T08:09:02.786Z,-1.10
2022-12-19T08:10:02.710Z,-1.10
2022-12-19T08:11:02.776Z,-1.10
2022-12-19T08:12:02.727Z,-1.00
2022-12-19T08:13:02.635Z,-1.00
2022-12-19T08:14:03.619Z,-1.00
2022-12-19T08:15:03.537Z,-1.00
2022-12-19T08:16:03.551Z,-1.00
2022-12-19T08:17:20.575Z,-1.00
2022-12-19T08:18:03.469Z,-0.90
2022-12-19T08:19:03.346Z,-0.90
2022-12-19T08:20:03.394Z,-0.90
2022-12-19T08:21:03.338Z,-0.90
2022-12-19T08:22:03.257Z,-0.90
2022-12-19T08:23:03.222Z,-0.80
2022-12-19T08:24:03.384Z,-0.80
2022-12-19T08:25:03.174Z,-0.80
2022-12-19T08:26:03.086Z,-0.80
2022-12-19T08:27:03.021Z,-0.70
2022-12-19T08:28:02.954Z,-0.70
2022-12-19T08:29:02.978Z,-0.70
2022-12-19T08:30:02.861Z,-0.70
2022-12-19T08:31:02.922Z,-0.70
2022-12-19T08:32:02.819Z,-0.60
2022-12-19T08:33:02.682Z,-0.60
2022-12-19T08:34:02.638Z,-0.60
2022-12-19T08:35:03.510Z,-0.60
2022-12-19T08:36:03.443Z,-0.50
2022-12-19T08:37:03.599Z,-0.50
2022-12-19T08:38:03.463Z,-0.50
2022-12-19T08:39:03.417Z,-0.50
2022-12-19T08:40:03.451Z,-0.50
2022-12-19T08:41:03.454Z,-0.40
2022-12-19T08:42:03.515Z,-0.40
2022-12-19T08:43:03.470Z,-0.40
2022-12-19T08:44:03.413Z,-0.40
2022-12-19T08:45:03.423Z,-0.30
2022-12-19T08:46:03.505Z,-0.30
2022-12-19T08:47:03.409Z,-0.30
2022-12-19T08:48:03.326Z,-0.30
2022-12-19T08:49:03.270Z,-0.20
2022-12-19T08:50:03.208Z,-0.20
2022-12-19T08:51:03.204Z,-0.20
2022-12-19T08:52:03.214Z,-0.20
2022-12-19T08:53:03.389Z,-0.20
2022-12-19T08:54:03.405Z,-0.10
2022-12-19T08:55:03.413Z,-0.10
2022-12-19T08:56:02.733Z,-0.10
2022-12-19T08:57:02.683Z,-0.10
2022-12-19T08:58:02.600Z,0.00
2022-12-19T08:59:03.375Z,0.00
2022-12-19T09:00:03.427Z,0.00
2022-12-19T09:01:05.179Z,0.00
2022-12-19T09:02:03.430Z,0.10
2022-12-19T09:03:03.398Z,0.10
2022-12-19T09:04:25.216Z,0.10
2022-12-19T09:05:28.525Z,0.10
2022-12-19T09:06:06.859Z,0.10
2022-12-19T09:07:03.049Z,0.10
2022-12-19T09:08:03.008Z,0.10
2022-12-19T09:09:02.698Z,0.20
2022-12-19T09:10:02.711Z,0.20
2022-12-19T09:11:02.615Z,0.20
2022-12-19T09:12:02.611Z,0.20
2022-12-19T09:13:02.644Z,0.20
2022-12-19T09:14:02.656Z,0.20
2022-12-19T09:15:02.665Z,0.30
2022-12-19T09:16:02.622Z,0.30
2022-12-19T09:17:03.912Z,0.30
2022-12-19T09:18:02.570Z,0.30
2022-12-19T09:19:03.594Z,0.30
2022-12-19T09:20:03.561Z,0.30
2022-12-19T09:21:02.819Z,0.30
2022-12-19T09:22:02.860Z,0.30
2022-12-19T09:23:02.714Z,0.30
2022-12-19T09:24:07.611Z,0.40
2022-12-19T09:25:03.139Z,0.40
2022-12-19T09:26:03.074Z,0.40
2022-12-19T09:27:02.979Z,0.40
2022-12-19T09:28:26.718Z,0.40
2022-12-19T09:29:02.970Z,0.40
2022-12-19T09:30:02.926Z,0.40
2022-12-19T09:31:03.029Z,0.40
2022-12-19T09:32:02.894Z,0.50
2022-12-19T09:33:02.872Z,0.50
2022-12-19T09:34:02.825Z,0.50
2022-12-19T09:35:02.760Z,0.50
2022-12-19T09:36:02.687Z,0.50
2022-12-19T09:37:02.623Z,0.50
2022-12-19T09:38:02.616Z,0.50
2022-12-19T09:39:03.521Z,0.50
2022-12-19T09:40:03.469Z,0.50
2022-12-19T09:41:03.429Z,0.50
2022-12-19T09:42:03.325Z,0.50
2022-12-19T09:43:03.293Z,0.50
2022-12-19T09:44:03.277Z,0.50
2022-12-19T09:45:03.241Z,0.60
2022-12-19T09:46:03.174Z,0.50
2022-12-19T09:47:03.112Z,0.50
2022-12-19T09:48:02.989Z,0.60
2022-12-19T09:49:02.903Z,0.60
2022-12-19T09:50:02.808Z,0.60
2022-12-19T09:51:09.904Z,0.60
2022-12-19T09:52:02.779Z,0.60
2022-12-19T09:53:02.763Z,0.60
2022-12-19T09:54:02.855Z,0.60
2022-12-19T09:55:02.735Z,0.60
2022-12-19T09:56:03.238Z,0.60
2022-12-19T09:57:03.207Z,0.60
2022-12-19T09:58:04.694Z,0.70
2022-12-19T09:59:03.107Z,0.70
2022-12-19T10:00:03.177Z,0.70
2022-12-19T10:01:03.371Z,0.70
2022-12-19T10:02:03.354Z,0.70
2022-12-19T10:03:03.466Z,0.70
2022-12-19T10:04:03.260Z,0.70
2022-12-19T10:05:07.000Z,0.70
2022-12-19T10:07:10.712Z,0.80
2022-12-19T10:07:16.496Z,0.80
2022-12-19T10:08:08.677Z,0.80
2022-12-19T10:09:22.316Z,0.80
2022-12-19T10:11:00.970Z,0.80
2022-12-19T10:12:34.711Z,0.80
2022-12-19T10:12:37.145Z,0.80
2022-12-19T10:13:07.759Z,0.80
2022-12-19T10:14:03.406Z,0.80
2022-12-19T10:15:03.375Z,0.80
2022-12-19T10:16:03.326Z,0.90
2022-12-19T10:17:23.474Z,0.90
2022-12-19T10:18:03.214Z,0.90
2022-12-19T10:19:03.248Z,0.90
2022-12-19T10:20:03.199Z,0.90
2022-12-19T10:21:03.135Z,0.90
2022-12-19T10:22:17.491Z,0.90
2022-12-19T10:23:03.159Z,0.90
2022-12-19T10:24:03.179Z,0.90
2022-12-19T10:25:08.171Z,0.90
2022-12-19T10:26:03.035Z,0.90
2022-12-19T10:27:03.108Z,1.00
2022-12-19T10:28:02.958Z,1.00
2022-12-19T10:29:02.885Z,1.00
2022-12-19T10:30:02.812Z,1.00
2022-12-19T10:31:08.999Z,1.00
2022-12-19T10:32:02.812Z,1.00
2022-12-19T10:33:02.788Z,1.00
2022-12-19T10:34:02.833Z,1.00
2022-12-19T10:35:02.799Z,1.00
2022-12-19T10:36:03.126Z,1.00
2022-12-19T10:37:23.296Z,1.00
2022-12-19T10:38:03.436Z,1.10
2022-12-19T10:39:03.516Z,1.10
2022-12-19T10:40:03.521Z,1.10
2022-12-19T10:41:03.513Z,1.10
2022-12-19T10:42:03.538Z,1.10
2022-12-19T10:43:05.960Z,1.10
2022-12-19T10:44:03.550Z,1.10
2022-12-19T10:45:03.454Z,1.10
2022-12-19T10:46:03.523Z,1.10
2022-12-19T10:47:03.905Z,1.10
2022-12-19T10:48:03.196Z,1.20
2022-12-19T10:49:03.223Z,1.20
2022-12-19T10:50:09.143Z,1.20
2022-12-19T10:51:06.649Z,1.20
2022-12-19T10:52:02.893Z,1.20
2022-12-19T10:53:02.885Z,1.30
2022-12-19T10:54:02.875Z,1.30
2022-12-19T10:55:02.871Z,1.30
2022-12-19T10:56:02.753Z,1.30
2022-12-19T10:57:02.773Z,1.30
2022-12-19T10:58:02.737Z,1.30
2022-12-19T10:59:03.216Z,1.30
2022-12-19T11:00:02.733Z,1.30
2022-12-19T11:01:02.693Z,1.40
2022-12-19T11:02:06.062Z,1.40
2022-12-19T11:03:03.600Z,1.40
2022-12-19T11:04:03.506Z,1.40
2022-12-19T11:05:03.714Z,1.40
2022-12-19T11:06:03.452Z,1.40
2022-12-19T11:07:03.556Z,1.40
2022-12-19T11:08:03.464Z,1.40
2022-12-19T11:09:03.519Z,1.50
2022-12-19T11:10:33.288Z,1.50
2022-12-19T11:12:37.947Z,1.50
2022-12-19T11:13:02.085Z,1.50
2022-12-19T11:14:46.515Z,1.50
2022-12-19T11:16:47.328Z,1.50
2022-12-19T11:17:02.003Z,1.50
2022-12-19T11:18:08.960Z,1.60
2022-12-19T11:20:49.667Z,1.60
2022-12-19T11:21:02.699Z,1.50
2022-12-19T11:23:49.091Z,1.60
2022-12-19T11:25:20.333Z,1.60
2022-12-19T11:27:04.002Z,1.60
2022-12-19T11:28:18.250Z,1.60
2022-12-19T11:28:21.004Z,1.60
2022-12-19T11:29:28.203Z,1.60
2022-12-19T11:30:21.651Z,1.60
2022-12-19T11:30:22.101Z,1.70
2022-12-19T11:30:22.941Z,1.60
2022-12-19T11:30:23.811Z,1.60
2022-12-19T11:30:24.223Z,1.60
2022-12-19T11:32:10.138Z,1.70
2022-12-19T11:32:34.183Z,1.70
2022-12-19T11:33:03.343Z,1.70
2022-12-19T11:34:03.311Z,1.70
2022-12-19T11:35:03.266Z,1.70
2022-12-19T11:36:03.239Z,1.70
2022-12-19T11:37:03.197Z,1.80
2022-12-19T11:38:03.206Z,1.80
2022-12-19T11:39:03.286Z,1.80
2022-12-19T11:40:03.351Z,1.80
2022-12-19T11:41:03.279Z,1.80
2022-12-19T11:42:03.168Z,1.80
2022-12-19T11:43:42.402Z,1.80
2022-12-19T11:44:03.529Z,1.80
2022-12-19T11:45:03.628Z,1.80
2022-12-19T11:46:03.490Z,1.80
2022-12-19T11:47:03.529Z,1.80
2022-12-19T11:48:03.513Z,1.80
2022-12-19T11:49:03.559Z,1.80
2022-12-19T11:50:03.577Z,1.80
2022-12-19T11:51:02.652Z,1.80
2022-12-19T11:52:03.557Z,1.90
2022-12-19T11:53:05.820Z,1.90
2022-12-19T11:54:03.555Z,1.90
2022-12-19T11:55:03.524Z,1.90
2022-12-19T11:56:03.379Z,1.90
2022-12-19T11:57:03.434Z,1.90
2022-12-19T11:58:03.258Z,1.90
2022-12-19T11:59:03.188Z,1.90
2022-12-19T12:00:05.531Z,1.90
2022-12-19T12:01:03.087Z,1.90
2022-12-19T12:02:03.191Z,1.90
2022-12-19T12:03:03.119Z,1.90
2022-12-19T12:04:03.381Z,1.90
2022-12-19T12:05:02.961Z,1.90
2022-12-19T12:06:03.055Z,1.90
2022-12-19T12:07:04.235Z,1.90
2022-12-19T12:08:54.390Z,1.90
2022-12-19T12:10:02.683Z,1.90
2022-12-19T12:12:35.076Z,1.90
2022-12-19T12:12:40.247Z,1.90
2022-12-19T12:15:53.475Z,1.90
2022-12-19T12:16:27.890Z,2.00
2022-12-19T12:16:31.187Z,1.90
2022-12-19T12:19:55.581Z,2.00
2022-12-19T12:20:18.561Z,2.00
2022-12-19T12:21:23.119Z,2.00
2022-12-19T12:21:32.410Z,2.00
2022-12-19T12:25:54.623Z,2.00
2022-12-19T12:26:11.597Z,2.00
2022-12-19T12:29:01.553Z,2.00
2022-12-19T12:29:52.128Z,2.00
2022-12-19T12:31:03.228Z,2.00
2022-12-19T12:31:34.388Z,2.00
2022-12-19T12:31:35.275Z,2.00
2022-12-19T12:31:35.713Z,2.00
2022-12-19T12:31:37.612Z,2.00
2022-12-19T12:31:37.697Z,2.00
2022-12-19T12:31:37.827Z,2.10
2022-12-19T12:31:37.900Z,2.00
2022-12-19T12:35:25.189Z,2.00
2022-12-19T12:35:25.452Z,2.00
2022-12-19T12:35:26.995Z,2.10
2022-12-19T12:35:27.882Z,2.00
2022-12-19T12:36:48.940Z,2.10
2022-12-19T12:38:23.340Z,2.10
2022-12-19T12:39:03.604Z,2.10
2022-12-19T12:40:03.467Z,2.10
2022-12-19T12:41:03.399Z,2.10
2022-12-19T12:42:03.484Z,2.10
2022-12-19T12:43:03.513Z,2.10
2022-12-19T12:44:03.501Z,2.10
2022-12-19T12:45:03.392Z,2.10
2022-12-19T12:46:03.488Z,2.10
2022-12-19T12:47:03.265Z,2.10
2022-12-19T12:48:03.197Z,2.10
2022-12-19T12:49:03.195Z,2.10
2022-12-19T12:50:03.088Z,2.10
2022-12-19T12:51:03.081Z,2.10
2022-12-19T12:52:03.099Z,2.10
2022-12-19T12:53:03.064Z,2.10
2022-12-19T12:54:03.074Z,2.10
2022-12-19T12:55:02.930Z,2.10
2022-12-19T12:56:02.948Z,2.10
2022-12-19T12:57:02.765Z,2.20
2022-12-19T12:58:02.784Z,2.20
2022-12-19T12:59:02.771Z,2.20
2022-12-19T13:00:02.831Z,2.20
2022-12-19T13:01:02.882Z,2.20
2022-12-19T13:02:02.914Z,2.20
2022-12-19T13:03:03.011Z,2.20